• °C
  • Pobieranie danych...
wx


SEKCJA WYDRUKÓW, pokaż »

TAF EPBC 190200Z NIL=

TAF EPCE 190200Z 1903/1912 01005KT 9999 BKN030 BECMG 1906/1908
02010KT =

TAF EPCE 190500Z 1906/1915 01005KT 9999 BKN035 BECMG 1906/1908
02012KT=

TAF EPDA 190200Z 1903/1912 05007KT 9999 BKN040=

TAF EPDA 190500Z 1906/1915 05012KT 9999 BKN040=

TAF EPDE 190200Z 1903/1912 32010KT 6000 RA BKN008 OVC014
BECMG 1908/1910 8000 -RA SCT008 BKN014 OVC020=

TAF EPDE 190500Z 1906/1915 32010KT 7000 RA RADZ BKN008 BKN013 OVC020
BECMG 1910/1912 9999 SCT009 OVC020=

TAF EPIR 190200Z NIL=

TAF EPKS 190200Z 1903/1912 35006KT 9999 BKN025=

TAF EPKS 190500Z 1906/1915 35006KT 9999 BKN040=

TAF AMD EPLK 190410Z 1903/1912 35008KT 9999 BKN040=

TAF EPLK 190500Z 1906/1915 33010KT 9999 BKN033
TEMPO 1906/1908 SCT012=

TAF EPLY 190200Z NIL=

TAF EPMB 190200Z 1903/1912 03006KT 9999 BKN033
PROB30 TEMPO 1903/1911 SCT033
BECMG 1907/1910 01014KT=

TAF EPMB 190500Z 1906/1915 01006KT 9999 BKN035
BECMG 1907/1910 01012KT
PROB30 TEMPO 1909/1915 01012G22KT SCT033=

TAF EPMI 190200Z 1903/1912 02008KT 9999 BKN033=

TAF EPMI 190500Z 1906/1915 01006KT 9999 BKN033=

TAF EPMM 190200Z 1903/1912 36008KT 9999 BKN010 OVC015
TEMPO 1903/1906 5000 RA BR BKN005 OVC010
PROB30 TEMPO 1903/1905 3000 DZRA BR BKN003=

TAF EPMM 190500Z 1906/1915 35010KT 9999 BKN010 OVC015
BECMG 1907/1909 BKN020 BKN035=

TAF EPNA 190200Z NIL=

TAF EPOK 190200Z 1903/1912 06010KT 9999 BKN030=

TAF EPOK 190500Z 1906/1915 02012KT 9999 BKN035=

TAF EPPR 190200Z 1903/1912 02012KT 9999 BKN030=

TAF EPPR 190500Z 1906/1915 01014KT 9999 BKN030=

TAF EPPW 190200Z 1903/1912 35006KT 9999 BKN030
PROB30 1904/1907 SCT007 BKN014=

TAF EPPW 190500Z 1906/1915 35008KT 9999 BKN033=

TAF EPRA 190200Z NIL=

TAF EPSN 190200Z NIL=

TAF EPTM 190200Z NIL=

TAF EPTM 190500Z 1906/1915 33010KT 9999 BKN030=



Serwisy IMGW-PIB